createdAt,value
2023-01-19T00:00:35.759Z,38.57
2023-01-19T00:03:22.769Z,38.53
2023-01-19T00:05:50.083Z,36.33
2023-01-19T00:08:17.543Z,40.10
2023-01-19T00:10:47.625Z,36.07
2023-01-19T00:13:16.569Z,39.37
2023-01-19T00:15:45.331Z,41.20
2023-01-19T00:18:12.289Z,36.80
2023-01-19T00:20:40.400Z,37.93
2023-01-19T00:23:10.558Z,33.80
2023-01-19T00:25:45.583Z,35.73
2023-01-19T00:28:14.728Z,36.57
2023-01-19T00:30:42.669Z,37.70
2023-01-19T00:33:10.769Z,34.00
2023-01-19T00:35:38.048Z,37.13
2023-01-19T00:38:05.176Z,34.77
2023-01-19T00:40:32.437Z,35.57
2023-01-19T00:43:00.630Z,34.37
2023-01-19T00:45:28.319Z,39.50
2023-01-19T00:47:57.225Z,37.13
2023-01-19T00:50:26.516Z,35.00
2023-01-19T00:52:54.998Z,41.53
2023-01-19T00:55:23.164Z,37.27
2023-01-19T00:57:50.741Z,37.83
2023-01-19T01:00:19.965Z,38.40
2023-01-19T01:02:47.805Z,33.03
2023-01-19T01:05:16.383Z,36.47
2023-01-19T01:07:45.255Z,34.23
2023-01-19T01:10:21.715Z,35.23
2023-01-19T01:12:57.540Z,34.97
2023-01-19T01:15:28.336Z,33.73
2023-01-19T01:17:55.908Z,38.30
2023-01-19T01:20:28.701Z,40.60
2023-01-19T01:22:57.036Z,33.00
2023-01-19T01:25:26.389Z,43.07
2023-01-19T01:27:54.465Z,39.20
2023-01-19T01:30:22.226Z,35.73
2023-01-19T01:32:49.437Z,33.97
2023-01-19T01:35:16.890Z,35.70
2023-01-19T01:37:44.268Z,40.00
2023-01-19T01:40:17.009Z,35.23
2023-01-19T01:42:45.475Z,40.83
2023-01-19T01:45:40.386Z,37.83
2023-01-19T01:48:16.184Z,34.83
2023-01-19T01:51:12.412Z,33.03
2023-01-19T01:53:40.867Z,39.57
2023-01-19T01:56:12.758Z,32.83
2023-01-19T01:58:40.747Z,39.30
2023-01-19T02:01:29.327Z,37.53
2023-01-19T02:03:57.881Z,37.73
2023-01-19T02:06:26.431Z,37.97
2023-01-19T02:09:22.408Z,55.23
2023-01-19T02:12:08.878Z,39.40
2023-01-19T02:14:39.310Z,38.23
2023-01-19T02:17:06.982Z,34.53
2023-01-19T02:19:42.602Z,36.43
2023-01-19T02:22:17.892Z,37.73
2023-01-19T02:24:45.063Z,40.17
2023-01-19T02:27:13.198Z,36.10
2023-01-19T02:29:40.334Z,37.37
2023-01-19T02:32:07.711Z,35.43
2023-01-19T02:34:35.622Z,39.63
2023-01-19T02:37:14.814Z,40.07
2023-01-19T02:39:45.401Z,36.90
2023-01-19T02:42:43.737Z,38.83
2023-01-19T02:45:14.494Z,34.97
2023-01-19T02:47:52.268Z,39.13
2023-01-19T02:50:57.730Z,38.47
2023-01-19T02:53:43.624Z,37.97
2023-01-19T02:56:30.801Z,36.20
2023-01-19T02:59:00.928Z,35.43
2023-01-19T03:01:36.602Z,37.13
2023-01-19T03:04:19.574Z,36.43
2023-01-19T03:07:00.785Z,38.37
2023-01-19T03:10:03.111Z,38.43
2023-01-19T03:13:10.935Z,38.47
2023-01-19T03:15:54.470Z,31.53
2023-01-19T03:18:24.756Z,38.17
2023-01-19T03:20:56.004Z,38.97
2023-01-19T03:23:28.075Z,39.93
2023-01-19T03:25:57.887Z,39.93
2023-01-19T03:28:26.776Z,34.53
2023-01-19T03:31:19.695Z,38.07
2023-01-19T03:33:51.033Z,35.53
2023-01-19T03:36:41.577Z,39.37
2023-01-19T03:39:11.370Z,37.47
2023-01-19T03:41:41.339Z,35.57
2023-01-19T03:44:08.798Z,42.37
2023-01-19T03:46:36.189Z,35.20
2023-01-19T03:49:03.276Z,39.53
2023-01-19T03:51:30.759Z,37.47
2023-01-19T03:53:57.695Z,42.03
2023-01-19T03:56:25.835Z,42.07
2023-01-19T03:58:52.905Z,40.13
2023-01-19T04:01:23.415Z,45.47
2023-01-19T04:03:51.401Z,49.30
2023-01-19T04:06:19.862Z,43.80
2023-01-19T04:08:51.514Z,43.63
2023-01-19T04:11:19.178Z,43.40
2023-01-19T04:13:46.173Z,47.90
2023-01-19T04:16:13.573Z,42.40
2023-01-19T04:18:41.744Z,46.37
2023-01-19T04:21:09.051Z,51.33
2023-01-19T04:23:36.011Z,40.80
2023-01-19T04:26:07.968Z,46.60
2023-01-19T04:28:37.211Z,41.03
2023-01-19T04:31:06.460Z,42.63
2023-01-19T04:33:34.326Z,42.67
2023-01-19T04:36:01.848Z,44.67
2023-01-19T04:38:28.881Z,41.90
2023-01-19T04:40:56.262Z,39.27
2023-01-19T04:43:24.008Z,39.20
2023-01-19T04:45:51.589Z,41.67
2023-01-19T04:48:19.334Z,43.30
2023-01-19T04:50:47.456Z,40.37
2023-01-19T04:53:16.337Z,38.17
2023-01-19T04:55:43.576Z,40.00
2023-01-19T04:58:10.763Z,36.80
2023-01-19T05:00:38.035Z,41.17
2023-01-19T05:03:05.624Z,37.43
2023-01-19T05:05:33.304Z,41.13
2023-01-19T05:08:00.689Z,39.33
2023-01-19T05:10:28.531Z,41.63
2023-01-19T05:12:55.979Z,38.27
2023-01-19T05:15:23.660Z,36.60
2023-01-19T05:17:50.700Z,38.47
2023-01-19T05:20:18.099Z,33.97
2023-01-19T05:22:54.272Z,38.07
2023-01-19T05:25:21.548Z,39.40
2023-01-19T05:27:48.710Z,36.80
2023-01-19T05:30:16.443Z,33.70
2023-01-19T05:32:43.586Z,33.13
2023-01-19T05:35:10.880Z,33.23
2023-01-19T05:37:38.139Z,30.60
2023-01-19T05:40:06.981Z,33.10
2023-01-19T05:42:34.203Z,33.13
2023-01-19T05:45:01.436Z,32.00
2023-01-19T05:47:29.914Z,30.57
2023-01-19T05:49:57.528Z,31.60
2023-01-19T05:52:27.582Z,28.47
2023-01-19T05:54:55.273Z,31.63
2023-01-19T05:57:23.150Z,30.97
2023-01-19T05:59:50.511Z,31.90
2023-01-19T06:02:17.565Z,29.40
2023-01-19T06:04:45.022Z,33.20
2023-01-19T06:07:12.007Z,31.37
2023-01-19T06:09:39.280Z,28.43
2023-01-19T06:12:06.561Z,34.50
2023-01-19T06:14:33.865Z,53.33
2023-01-19T06:17:00.960Z,37.33
2023-01-19T06:19:28.367Z,32.20
2023-01-19T06:21:55.387Z,30.00
2023-01-19T06:24:23.191Z,30.07
2023-01-19T06:26:50.191Z,30.47
2023-01-19T06:29:18.447Z,30.70
2023-01-19T06:31:45.514Z,28.63
2023-01-19T06:34:12.848Z,36.40
2023-01-19T06:36:39.948Z,29.47
2023-01-19T06:39:07.233Z,27.37
2023-01-19T06:41:34.995Z,29.80
2023-01-19T06:44:02.942Z,28.97
2023-01-19T06:46:30.369Z,28.27
2023-01-19T06:48:57.657Z,25.93
2023-01-19T06:51:25.538Z,27.47
2023-01-19T06:53:52.803Z,28.67
2023-01-19T06:56:19.888Z,35.10
2023-01-19T06:58:48.641Z,29.33
2023-01-19T07:01:15.776Z,28.23
2023-01-19T07:03:46.145Z,33.00
2023-01-19T07:06:13.851Z,25.67
2023-01-19T07:08:41.137Z,25.80
2023-01-19T07:11:25.462Z,29.90
2023-01-19T07:13:58.198Z,25.80
2023-01-19T07:16:25.363Z,27.20
2023-01-19T07:18:52.904Z,28.57
2023-01-19T07:21:20.099Z,27.63
2023-01-19T07:23:53.695Z,28.43
2023-01-19T07:26:21.969Z,26.43
2023-01-19T07:28:49.704Z,25.50
2023-01-19T07:31:17.920Z,27.13
2023-01-19T07:33:46.786Z,29.03
2023-01-19T07:36:13.829Z,28.63
2023-01-19T07:38:41.058Z,26.30
2023-01-19T07:41:10.074Z,31.30
2023-01-19T07:43:37.618Z,37.00
2023-01-19T07:46:06.238Z,28.80
2023-01-19T07:48:33.602Z,31.50
2023-01-19T07:51:01.861Z,27.60
2023-01-19T07:53:29.092Z,31.20
2023-01-19T07:55:57.031Z,29.67
2023-01-19T07:58:25.309Z,31.60
2023-01-19T08:00:52.669Z,31.87
2023-01-19T08:03:20.312Z,27.23
2023-01-19T08:05:51.621Z,27.30
2023-01-19T08:08:19.689Z,30.33
2023-01-19T08:10:50.473Z,32.07
2023-01-19T08:13:18.617Z,28.70
2023-01-19T08:15:48.781Z,30.47
2023-01-19T08:18:16.147Z,28.97
2023-01-19T08:20:43.398Z,31.33
2023-01-19T08:23:11.055Z,28.87
2023-01-19T08:25:47.151Z,30.77
2023-01-19T08:28:16.874Z,28.17
2023-01-19T08:30:45.026Z,30.50
2023-01-19T08:33:14.050Z,25.97
2023-01-19T08:35:43.351Z,26.60
2023-01-19T08:38:10.908Z,29.53
2023-01-19T08:40:40.433Z,32.87
2023-01-19T08:43:11.039Z,28.60
2023-01-19T08:45:46.672Z,31.20
2023-01-19T08:48:18.716Z,30.23
2023-01-19T08:50:47.685Z,30.63
2023-01-19T08:53:16.226Z,28.17
2023-01-19T08:55:43.278Z,31.83
2023-01-19T08:58:10.724Z,27.93
2023-01-19T09:00:39.338Z,26.00
2023-01-19T09:03:09.047Z,27.43
2023-01-19T09:05:38.773Z,27.23
2023-01-19T09:08:13.001Z,29.30
2023-01-19T09:10:44.756Z,24.70
2023-01-19T09:13:13.035Z,25.03
2023-01-19T09:15:41.625Z,28.60
2023-01-19T09:18:15.368Z,22.70
2023-01-19T09:20:45.115Z,24.47
2023-01-19T09:23:14.543Z,23.80
2023-01-19T09:25:43.380Z,23.70
2023-01-19T09:28:12.437Z,27.27
2023-01-19T09:30:40.992Z,21.93
2023-01-19T09:33:11.187Z,24.53
2023-01-19T09:35:39.722Z,25.47
2023-01-19T09:38:09.112Z,24.73
2023-01-19T09:40:56.567Z,23.20
2023-01-19T09:43:36.436Z,24.87
2023-01-19T09:46:33.994Z,26.30
2023-01-19T09:49:13.435Z,26.03
2023-01-19T09:51:44.598Z,25.90
2023-01-19T09:54:12.781Z,24.67
2023-01-19T09:56:40.907Z,24.37
2023-01-19T09:59:30.353Z,22.33
2023-01-19T10:02:21.648Z,25.07
2023-01-19T10:05:03.857Z,25.47
2023-01-19T10:07:44.160Z,29.00
2023-01-19T10:10:20.852Z,23.70
2023-01-19T10:12:53.870Z,27.17
2023-01-19T10:15:30.553Z,24.87
2023-01-19T10:18:00.487Z,29.17
2023-01-19T10:20:40.014Z,22.70
2023-01-19T10:23:28.569Z,23.70
2023-01-19T10:25:59.605Z,22.57
2023-01-19T10:28:27.653Z,22.07
2023-01-19T10:30:56.153Z,18.30
2023-01-19T10:33:23.306Z,21.73
2023-01-19T10:35:51.137Z,20.57
2023-01-19T10:38:22.359Z,24.53
2023-01-19T10:41:04.687Z,25.47
2023-01-19T10:43:34.559Z,23.70
2023-01-19T10:46:14.658Z,21.43
2023-01-19T10:48:42.611Z,21.30
2023-01-19T10:51:11.075Z,19.60
2023-01-19T10:53:38.557Z,21.27
2023-01-19T10:56:21.951Z,22.57
2023-01-19T10:58:49.027Z,22.73
2023-01-19T11:01:18.518Z,24.80
2023-01-19T11:03:45.923Z,23.33
2023-01-19T11:06:16.169Z,22.90
2023-01-19T11:08:45.305Z,22.23
2023-01-19T11:11:13.435Z,23.83
2023-01-19T11:13:42.235Z,22.80
2023-01-19T11:16:34.849Z,24.80
2023-01-19T11:19:03.625Z,26.03
2023-01-19T11:21:32.791Z,24.47
2023-01-19T11:24:03.148Z,25.40
2023-01-19T11:26:42.951Z,25.63
2023-01-19T11:29:22.823Z,26.20
2023-01-19T11:31:51.523Z,26.63
2023-01-19T11:34:33.994Z,30.20
2023-01-19T11:37:21.447Z,28.90
2023-01-19T11:40:11.749Z,27.03
2023-01-19T11:42:39.820Z,29.90
2023-01-19T11:45:16.039Z,26.90
2023-01-19T11:47:45.993Z,32.17
2023-01-19T11:50:31.626Z,27.13
2023-01-19T11:53:05.779Z,29.53
2023-01-19T11:55:48.776Z,30.30
2023-01-19T11:58:18.095Z,28.37
2023-01-19T12:00:52.940Z,28.50
2023-01-19T12:03:31.801Z,26.67
2023-01-19T12:06:04.595Z,25.47
2023-01-19T12:08:36.893Z,26.77
2023-01-19T12:11:05.156Z,31.00
2023-01-19T12:13:34.375Z,26.20
2023-01-19T12:16:09.358Z,26.00
2023-01-19T12:18:48.105Z,24.83
2023-01-19T12:21:15.071Z,26.30
2023-01-19T12:23:56.276Z,32.33
2023-01-19T12:26:30.843Z,26.57
2023-01-19T12:29:06.975Z,24.80
2023-01-19T12:31:35.163Z,28.47
2023-01-19T12:34:38.883Z,30.13
2023-01-19T12:37:26.955Z,25.60
2023-01-19T12:39:56.627Z,26.60
2023-01-19T12:42:25.081Z,28.40
2023-01-19T12:45:05.673Z,30.83
2023-01-19T12:47:33.154Z,29.90
2023-01-19T12:50:07.158Z,29.57
2023-01-19T12:52:51.688Z,29.90
2023-01-19T12:55:31.547Z,27.30
2023-01-19T12:58:12.810Z,30.60
2023-01-19T13:00:43.399Z,27.20
2023-01-19T13:03:19.629Z,31.93
2023-01-19T13:05:54.586Z,30.60
2023-01-19T13:08:28.318Z,30.37
2023-01-19T13:11:09.640Z,27.40
2023-01-19T13:14:02.514Z,28.87
2023-01-19T13:16:29.662Z,28.40
2023-01-19T13:19:05.844Z,32.83
2023-01-19T13:21:34.407Z,31.33
2023-01-19T13:24:02.846Z,32.93
2023-01-19T13:26:52.992Z,29.40
2023-01-19T13:29:49.404Z,29.73
2023-01-19T13:32:38.142Z,28.27
2023-01-19T13:35:06.894Z,31.10
2023-01-19T13:38:00.877Z,32.73
2023-01-19T13:41:08.011Z,34.87
2023-01-19T13:44:03.297Z,29.37
2023-01-19T13:46:51.659Z,31.80
2023-01-19T13:49:37.042Z,28.37
2023-01-19T13:52:30.776Z,29.40
2023-01-19T13:55:02.856Z,32.23
2023-01-19T13:57:32.138Z,30.77
2023-01-19T14:00:04.838Z,31.07
2023-01-19T14:02:32.414Z,27.07
2023-01-19T14:05:31.716Z,28.57
2023-01-19T14:08:01.971Z,26.90
2023-01-19T14:10:31.359Z,29.47
2023-01-19T14:13:00.605Z,32.43
2023-01-19T14:15:29.221Z,33.67
2023-01-19T14:18:33.297Z,28.93
2023-01-19T14:21:07.672Z,30.57
2023-01-19T14:23:55.428Z,27.57
2023-01-19T14:26:43.004Z,31.90
2023-01-19T14:29:10.220Z,29.40
2023-01-19T14:32:05.822Z,27.40
2023-01-19T14:34:34.306Z,25.90
2023-01-19T14:37:03.332Z,31.13
2023-01-19T14:39:35.259Z,28.70
2023-01-19T14:42:05.395Z,26.93
2023-01-19T14:44:37.091Z,26.00
2023-01-19T14:47:05.568Z,29.60
2023-01-19T14:49:41.825Z,27.17
2023-01-19T14:52:34.077Z,28.40
2023-01-19T14:55:03.897Z,26.87
2023-01-19T14:57:30.852Z,26.40
2023-01-19T14:59:58.108Z,29.87
2023-01-19T15:02:25.318Z,30.10
2023-01-19T15:04:55.451Z,27.20
2023-01-19T15:07:25.182Z,26.87
2023-01-19T15:09:52.864Z,25.23
2023-01-19T15:12:28.179Z,26.33
2023-01-19T15:14:56.035Z,26.53
2023-01-19T15:17:25.414Z,25.47
2023-01-19T15:19:56.682Z,27.83
2023-01-19T15:22:27.469Z,23.53
2023-01-19T15:24:57.711Z,23.50
2023-01-19T15:27:24.779Z,28.00
2023-01-19T15:29:52.057Z,24.03
2023-01-19T15:32:19.071Z,25.43
2023-01-19T15:34:46.316Z,29.27
2023-01-19T15:37:13.326Z,26.60
2023-01-19T15:39:40.625Z,24.53
2023-01-19T15:42:14.216Z,22.73
2023-01-19T15:44:41.508Z,25.10
2023-01-19T15:47:09.914Z,28.37
2023-01-19T15:49:37.118Z,27.93
2023-01-19T15:52:04.224Z,25.43
2023-01-19T15:54:31.504Z,23.97
2023-01-19T15:56:58.587Z,25.23
2023-01-19T15:59:26.055Z,24.93
2023-01-19T16:01:53.282Z,26.90
2023-01-19T16:04:20.660Z,26.50
2023-01-19T16:06:47.644Z,22.63
2023-01-19T16:09:18.479Z,21.17
2023-01-19T16:11:45.880Z,24.37
2023-01-19T16:14:13.132Z,26.37
2023-01-19T16:16:40.222Z,24.83
2023-01-19T16:19:07.485Z,22.93
2023-01-19T16:21:34.596Z,26.97
2023-01-19T16:24:01.814Z,23.50
2023-01-19T16:26:34.537Z,19.53
2023-01-19T16:29:10.784Z,21.67
2023-01-19T16:31:42.407Z,20.03
2023-01-19T16:34:09.898Z,22.30
2023-01-19T16:36:39.631Z,22.27
2023-01-19T16:39:12.309Z,19.60
2023-01-19T16:41:39.844Z,24.20
2023-01-19T16:44:08.223Z,21.33
2023-01-19T16:46:38.575Z,19.37
2023-01-19T16:49:10.767Z,21.07
2023-01-19T16:51:37.846Z,16.63
2023-01-19T16:54:05.178Z,17.00
2023-01-19T16:56:32.339Z,21.97
2023-01-19T16:59:00.086Z,17.00
2023-01-19T17:01:29.065Z,17.47
2023-01-19T17:03:56.788Z,17.47
2023-01-19T17:06:24.731Z,17.67
2023-01-19T17:08:52.733Z,15.93
2023-01-19T17:11:31.490Z,18.40
2023-01-19T17:14:07.729Z,19.67
2023-01-19T17:16:35.530Z,17.37
2023-01-19T17:19:05.199Z,20.67
2023-01-19T17:21:32.767Z,19.07
2023-01-19T17:24:00.474Z,19.70
2023-01-19T17:26:28.506Z,20.43
2023-01-19T17:29:03.821Z,19.87
2023-01-19T17:31:32.203Z,20.23
2023-01-19T17:34:00.353Z,20.60
2023-01-19T17:36:28.890Z,21.20
2023-01-19T17:38:58.482Z,24.33
2023-01-19T17:41:28.297Z,26.03
2023-01-19T17:43:59.605Z,28.60
2023-01-19T17:46:27.877Z,30.77
2023-01-19T17:49:02.216Z,24.93
2023-01-19T17:51:29.966Z,25.80
2023-01-19T17:53:57.661Z,25.33
2023-01-19T17:56:29.479Z,23.70
2023-01-19T17:58:57.810Z,24.50
2023-01-19T18:01:30.811Z,23.00
2023-01-19T18:03:59.069Z,23.50
2023-01-19T18:06:26.086Z,24.23
2023-01-19T18:08:54.177Z,24.60
2023-01-19T18:11:22.012Z,24.17
2023-01-19T18:13:50.577Z,24.17
2023-01-19T18:16:25.579Z,24.43
2023-01-19T18:18:54.223Z,22.00
2023-01-19T18:21:22.531Z,26.30
2023-01-19T18:23:51.000Z,22.43
2023-01-19T18:26:20.902Z,22.03
2023-01-19T18:28:48.687Z,23.03
2023-01-19T18:31:19.043Z,22.57
2023-01-19T18:33:48.423Z,26.93
2023-01-19T18:36:16.759Z,25.70
2023-01-19T18:38:44.955Z,24.50
2023-01-19T18:41:14.547Z,28.20
2023-01-19T18:43:42.140Z,25.97
2023-01-19T18:46:09.950Z,28.50
2023-01-19T18:48:38.494Z,30.97
2023-01-19T18:51:10.632Z,26.83
2023-01-19T18:53:38.122Z,29.10
2023-01-19T18:56:06.335Z,28.17
2023-01-19T18:58:36.829Z,29.93
2023-01-19T19:01:04.166Z,27.93
2023-01-19T19:03:31.468Z,31.57
2023-01-19T19:06:03.430Z,28.20
2023-01-19T19:08:30.806Z,33.47
2023-01-19T19:10:57.778Z,31.60
2023-01-19T19:13:25.378Z,32.90
2023-01-19T19:15:52.652Z,32.97
2023-01-19T19:18:19.923Z,33.03
2023-01-19T19:20:46.912Z,33.13
2023-01-19T19:23:14.286Z,36.00
2023-01-19T19:25:41.210Z,34.07
2023-01-19T19:28:08.500Z,42.40
2023-01-19T19:30:37.870Z,34.77
2023-01-19T19:33:05.346Z,38.97
2023-01-19T19:35:32.340Z,39.70
2023-01-19T19:38:00.050Z,35.60
2023-01-19T19:40:28.112Z,37.80
2023-01-19T19:42:58.341Z,35.13
2023-01-19T19:45:25.662Z,32.83
2023-01-19T19:47:52.890Z,36.17
2023-01-19T19:50:19.897Z,36.67
2023-01-19T19:52:47.131Z,35.67
2023-01-19T19:55:14.261Z,33.97
2023-01-19T19:57:41.485Z,38.93
2023-01-19T20:00:09.206Z,37.33
2023-01-19T20:02:36.861Z,34.60
2023-01-19T20:05:05.042Z,37.40
2023-01-19T20:07:32.844Z,39.53
2023-01-19T20:09:59.938Z,39.13
2023-01-19T20:12:27.538Z,38.50
2023-01-19T20:14:54.484Z,31.80
2023-01-19T20:17:23.177Z,38.40
2023-01-19T20:19:50.187Z,36.33
2023-01-19T20:22:17.408Z,33.23
2023-01-19T20:24:44.592Z,42.87
2023-01-19T20:27:11.842Z,35.37
2023-01-19T20:29:38.831Z,41.60
2023-01-19T20:32:06.186Z,40.13
2023-01-19T20:34:33.815Z,35.10
2023-01-19T20:37:03.225Z,35.97
2023-01-19T20:39:33.284Z,39.10
2023-01-19T20:42:01.277Z,37.07
2023-01-19T20:44:28.363Z,38.50
2023-01-19T20:46:55.990Z,36.83
2023-01-19T20:49:23.650Z,36.10
2023-01-19T20:51:52.236Z,39.60
2023-01-19T20:54:22.353Z,41.00
2023-01-19T20:56:49.735Z,36.33
2023-01-19T20:59:16.712Z,40.57
2023-01-19T21:01:44.632Z,38.33
2023-01-19T21:04:12.337Z,40.20
2023-01-19T21:06:40.558Z,43.80
2023-01-19T21:09:09.230Z,42.70
2023-01-19T21:11:38.880Z,39.00
2023-01-19T21:14:06.591Z,43.47
2023-01-19T21:16:35.563Z,36.37
2023-01-19T21:19:02.904Z,40.60
2023-01-19T21:21:31.634Z,40.60
2023-01-19T21:24:02.744Z,34.93
2023-01-19T21:26:30.966Z,38.93
2023-01-19T21:28:59.159Z,37.83
2023-01-19T21:31:27.934Z,43.70
2023-01-19T21:33:56.425Z,42.47
2023-01-19T21:36:24.665Z,40.50
2023-01-19T21:38:52.458Z,38.47
2023-01-19T21:41:20.208Z,39.97
2023-01-19T21:43:47.641Z,35.17
2023-01-19T21:46:19.369Z,39.63
2023-01-19T21:48:46.437Z,43.03
2023-01-19T21:51:14.881Z,39.00
2023-01-19T21:53:42.074Z,37.13
2023-01-19T21:56:10.929Z,40.97
2023-01-19T21:58:38.081Z,37.20
2023-01-19T22:01:10.841Z,38.63
2023-01-19T22:03:38.050Z,39.93
2023-01-19T22:06:12.626Z,41.47
2023-01-19T22:08:40.631Z,44.53
2023-01-19T22:11:11.528Z,35.97
2023-01-19T22:13:39.256Z,35.37
2023-01-19T22:16:08.992Z,39.77
2023-01-19T22:18:36.762Z,32.90
2023-01-19T22:21:08.911Z,38.43
2023-01-19T22:23:36.562Z,37.87
2023-01-19T22:26:04.773Z,34.50
2023-01-19T22:28:32.224Z,39.30
2023-01-19T22:31:11.194Z,34.73
2023-01-19T22:33:38.266Z,38.53
2023-01-19T22:36:20.532Z,32.80
2023-01-19T22:39:01.446Z,36.13
2023-01-19T22:41:33.571Z,37.33
2023-01-19T22:44:03.924Z,43.13
2023-01-19T22:46:33.890Z,44.80
2023-01-19T22:49:01.566Z,40.00
2023-01-19T22:51:30.531Z,37.30
2023-01-19T22:53:57.972Z,40.43
2023-01-19T22:56:29.995Z,42.67
2023-01-19T22:58:57.822Z,44.83
2023-01-19T23:01:33.113Z,38.70
2023-01-19T23:04:01.965Z,40.97
2023-01-19T23:06:32.202Z,44.43
2023-01-19T23:09:01.333Z,33.70
2023-01-19T23:11:35.606Z,40.77
2023-01-19T23:14:04.139Z,47.80
2023-01-19T23:16:31.384Z,44.63
2023-01-19T23:18:58.803Z,45.63
2023-01-19T23:21:28.972Z,42.53
2023-01-19T23:23:58.700Z,39.90
2023-01-19T23:26:26.667Z,43.77
2023-01-19T23:28:55.897Z,44.00
2023-01-19T23:31:28.912Z,45.13
2023-01-19T23:34:04.620Z,40.30
2023-01-19T23:36:33.802Z,41.30
2023-01-19T23:39:04.832Z,46.30
2023-01-19T23:41:34.630Z,43.53
2023-01-19T23:44:02.256Z,44.37
2023-01-19T23:46:29.998Z,39.80
2023-01-19T23:48:57.107Z,37.73
2023-01-19T23:51:29.924Z,41.00
2023-01-19T23:53:58.753Z,41.03
2023-01-19T23:56:30.071Z,45.93
2023-01-19T23:58:59.680Z,43.07
